createdAt,value
2022-09-01T00:00:29.197Z,99.60
2022-09-01T00:02:57.718Z,99.40
2022-09-01T00:05:26.272Z,99.70
2022-09-01T00:07:54.344Z,99.70
2022-09-01T00:10:22.721Z,99.50
2022-09-01T00:12:52.387Z,99.70
2022-09-01T00:15:20.528Z,99.90
2022-09-01T00:17:48.612Z,99.50
2022-09-01T00:20:20.299Z,99.40
2022-09-01T00:22:49.378Z,99.30
2022-09-01T00:25:20.211Z,99.10
2022-09-01T00:27:49.507Z,98.90
2022-09-01T00:30:19.316Z,99.20
2022-09-01T00:32:47.406Z,99.20
2022-09-01T00:35:17.240Z,99.30
2022-09-01T00:37:45.341Z,99.50
2022-09-01T00:40:16.128Z,99.70
2022-09-01T00:42:45.004Z,99.80
2022-09-01T00:45:13.668Z,99.70
2022-09-01T00:47:43.481Z,99.30
2022-09-01T00:50:13.577Z,99.20
2022-09-01T00:52:46.803Z,99.00
2022-09-01T00:55:18.601Z,99.10
2022-09-01T00:57:47.285Z,99.20
2022-09-01T01:00:18.721Z,99.30
2022-09-01T01:02:50.175Z,99.30
2022-09-01T01:05:18.551Z,99.50
2022-09-01T01:07:47.673Z,99.60
2022-09-01T01:10:18.838Z,99.80
2022-09-01T01:12:47.053Z,99.90
2022-09-01T01:15:17.177Z,99.90
2022-09-01T01:17:45.312Z,99.90
2022-09-01T01:20:35.474Z,99.90
2022-09-01T01:25:43.320Z,99.90
2022-09-01T01:28:15.456Z,99.90
2022-09-01T01:30:49.111Z,99.90
2022-09-01T01:33:17.260Z,99.90
2022-09-01T01:35:45.275Z,99.90
2022-09-01T01:38:15.657Z,99.90
2022-09-01T01:40:45.310Z,99.90
2022-09-01T01:43:19.973Z,99.90
2022-09-01T01:45:49.051Z,99.90
2022-09-01T01:48:23.908Z,99.90
2022-09-01T01:50:53.679Z,99.90
2022-09-01T01:53:22.351Z,99.90
2022-09-01T01:55:53.438Z,99.90
2022-09-01T01:58:24.548Z,99.90
2022-09-01T02:00:55.237Z,99.90
2022-09-01T02:03:33.461Z,99.90
2022-09-01T02:06:07.783Z,99.90
2022-09-01T02:08:37.554Z,99.90
2022-09-01T02:11:08.733Z,99.90
2022-09-01T02:13:36.774Z,99.90
2022-09-01T02:16:12.032Z,99.90
2022-09-01T02:18:43.192Z,99.90
2022-09-01T02:21:18.157Z,99.90
2022-09-01T02:23:49.617Z,99.90
2022-09-01T02:26:21.230Z,99.90
2022-09-01T02:28:54.754Z,99.90
2022-09-01T02:31:28.829Z,99.90
2022-09-01T02:34:01.089Z,99.90
2022-09-01T02:36:32.711Z,99.90
2022-09-01T02:39:01.125Z,99.90
2022-09-01T02:41:34.353Z,99.90
2022-09-01T02:44:03.913Z,99.90
2022-09-01T02:46:32.044Z,99.90
2022-09-01T02:49:01.587Z,99.90
2022-09-01T02:51:29.616Z,99.90
2022-09-01T02:53:58.497Z,99.90
2022-09-01T02:56:27.877Z,99.90
2022-09-01T02:58:57.600Z,99.90
2022-09-01T03:01:29.532Z,99.90
2022-09-01T03:04:00.502Z,99.90
2022-09-01T03:06:30.672Z,99.90
2022-09-01T03:09:00.618Z,99.90
2022-09-01T03:11:31.796Z,99.90
2022-09-01T03:14:01.763Z,99.90
2022-09-01T03:16:31.290Z,99.90
2022-09-01T03:18:59.882Z,99.90
2022-09-01T03:21:29.511Z,99.90
2022-09-01T03:23:58.125Z,99.90
2022-09-01T03:26:26.284Z,99.90
2022-09-01T03:28:54.817Z,99.90
2022-09-01T03:31:27.490Z,99.90
2022-09-01T03:34:01.458Z,99.90
2022-09-01T03:36:33.242Z,99.90
2022-09-01T03:39:02.238Z,99.90
2022-09-01T03:41:33.095Z,99.90
2022-09-01T03:44:01.142Z,99.90
2022-09-01T03:46:36.791Z,99.90
2022-09-01T03:49:07.466Z,99.90
2022-09-01T03:51:37.960Z,99.90
2022-09-01T03:54:07.047Z,99.90
2022-09-01T03:56:35.366Z,99.90
2022-09-01T03:59:03.824Z,99.90
2022-09-01T04:01:38.023Z,99.90
2022-09-01T04:04:07.795Z,99.90
2022-09-01T04:06:37.693Z,99.90
2022-09-01T04:09:05.746Z,99.90
2022-09-01T04:11:35.092Z,99.90
2022-09-01T04:14:04.483Z,99.90
2022-09-01T04:16:54.568Z,99.90
2022-09-01T04:19:26.547Z,99.90
2022-09-01T04:22:00.583Z,99.90
2022-09-01T04:24:36.818Z,99.90
2022-09-01T04:27:07.529Z,99.90
2022-09-01T04:29:35.976Z,99.90
2022-09-01T04:32:12.680Z,99.90
2022-09-01T04:34:42.812Z,99.90
2022-09-01T04:37:18.115Z,99.90
2022-09-01T04:39:55.814Z,99.90
2022-09-01T04:42:27.120Z,99.90
2022-09-01T04:44:56.622Z,99.90
2022-09-01T04:47:36.150Z,99.90
2022-09-01T04:50:13.805Z,99.90
2022-09-01T04:52:45.123Z,99.90
2022-09-01T04:55:24.724Z,99.90
2022-09-01T04:57:53.117Z,99.90
2022-09-01T05:00:25.973Z,99.90
2022-09-01T05:03:04.422Z,99.90
2022-09-01T05:05:54.038Z,99.90
2022-09-01T05:08:24.590Z,99.90
2022-09-01T05:10:56.722Z,99.90
2022-09-01T05:13:46.437Z,99.90
2022-09-01T05:16:24.098Z,99.90
2022-09-01T05:18:56.984Z,99.90
2022-09-01T05:21:28.246Z,99.90
2022-09-01T05:23:58.449Z,99.90
2022-09-01T05:26:28.927Z,99.90
2022-09-01T05:28:59.025Z,99.90
2022-09-01T05:31:34.713Z,99.90
2022-09-01T05:34:05.271Z,99.90
2022-09-01T05:36:33.858Z,99.90
2022-09-01T05:39:04.759Z,99.90
2022-09-01T05:41:34.504Z,99.90
2022-09-01T05:44:08.053Z,99.90
2022-09-01T05:46:39.445Z,99.90
2022-09-01T05:49:16.202Z,99.90
2022-09-01T05:51:50.757Z,99.90
2022-09-01T05:54:23.000Z,99.90
2022-09-01T05:56:53.472Z,99.90
2022-09-01T05:59:26.061Z,99.90
2022-09-01T06:02:09.120Z,99.40
2022-09-01T06:05:03.823Z,99.30
2022-09-01T06:07:43.051Z,98.90
2022-09-01T06:10:14.773Z,99.40
2022-09-01T06:12:45.646Z,98.70
2022-09-01T06:15:20.811Z,98.50
2022-09-01T06:17:52.630Z,98.80
2022-09-01T06:20:22.958Z,98.60
2022-09-01T06:22:52.535Z,98.00
2022-09-01T06:25:21.969Z,98.20
2022-09-01T06:27:52.370Z,98.30
2022-09-01T06:30:24.375Z,98.70
2022-09-01T06:33:09.263Z,98.50
2022-09-01T06:35:39.067Z,97.50
2022-09-01T06:38:07.943Z,97.40
2022-09-01T06:40:45.334Z,96.40
2022-09-01T06:43:17.412Z,96.00
2022-09-01T06:45:54.735Z,95.20
2022-09-01T06:48:27.482Z,95.10
2022-09-01T06:51:16.117Z,94.80
2022-09-01T06:53:56.366Z,94.70
2022-09-01T06:56:31.959Z,94.80
2022-09-01T06:59:05.583Z,94.90
2022-09-01T07:01:35.825Z,94.10
2022-09-01T07:04:04.747Z,93.90
2022-09-01T07:10:06.025Z,92.60
2022-09-01T07:13:05.460Z,91.60
2022-09-01T07:18:26.841Z,90.70
2022-09-01T07:24:06.040Z,87.80
2022-09-01T07:26:36.637Z,86.60
2022-09-01T07:29:13.871Z,86.40
2022-09-01T07:32:43.746Z,85.10
2022-09-01T07:34:40.372Z,84.10
2022-09-01T07:45:58.918Z,80.10
2022-09-01T07:49:01.310Z,80.10
2022-09-01T07:51:37.138Z,78.30
2022-09-01T07:54:07.508Z,77.10
2022-09-01T07:56:40.152Z,76.20
2022-09-01T07:59:15.005Z,74.10
2022-09-01T08:01:51.273Z,71.00
2022-09-01T08:04:22.873Z,64.00
2022-09-01T08:06:51.709Z,57.70
2022-09-01T08:09:35.121Z,56.80
2022-09-01T08:12:09.174Z,58.10
2022-09-01T08:15:12.753Z,60.80
2022-09-01T08:17:57.062Z,62.10
2022-09-01T08:20:27.243Z,61.80
2022-09-01T08:23:12.428Z,60.90
2022-09-01T08:25:42.063Z,59.70
2022-09-01T08:28:12.650Z,60.80
2022-09-01T08:30:52.061Z,60.80
2022-09-01T08:33:21.745Z,60.70
2022-09-01T08:35:50.608Z,60.90
2022-09-01T08:38:20.961Z,61.10
2022-09-01T08:40:56.415Z,61.00
2022-09-01T08:43:38.625Z,60.90
2022-09-01T08:46:14.115Z,59.60
2022-09-01T08:52:01.363Z,59.50
2022-09-01T08:54:36.583Z,59.60
2022-09-01T08:57:09.823Z,58.90
2022-09-01T08:59:58.469Z,58.90
2022-09-01T09:02:47.855Z,57.70
2022-09-01T09:05:31.991Z,56.30
2022-09-01T09:08:29.675Z,54.70
2022-09-01T09:11:04.760Z,54.60
2022-09-01T09:13:43.341Z,54.60
2022-09-01T09:16:18.581Z,53.50
2022-09-01T09:18:58.511Z,53.10
2022-09-01T09:21:30.727Z,53.20
2022-09-01T09:24:07.899Z,51.00
2022-09-01T09:26:43.376Z,48.90
2022-09-01T09:29:11.526Z,49.00
2022-09-01T09:31:46.082Z,48.30
2022-09-01T09:34:30.094Z,48.50
2022-09-01T09:36:58.161Z,48.40
2022-09-01T09:39:26.747Z,49.10
2022-09-01T09:42:08.981Z,47.70
2022-09-01T09:44:44.119Z,46.80
2022-09-01T09:47:46.263Z,46.70
2022-09-01T09:50:20.916Z,46.10
2022-09-01T09:52:50.201Z,45.50
2022-09-01T09:55:28.221Z,44.60
2022-09-01T09:57:59.740Z,44.10
2022-09-01T10:00:30.064Z,44.00
2022-09-01T10:03:07.782Z,44.70
2022-09-01T10:05:43.286Z,43.60
2022-09-01T10:08:14.916Z,44.10
2022-09-01T10:10:45.709Z,44.10
2022-09-01T10:13:29.054Z,44.00
2022-09-01T10:16:03.779Z,44.70
2022-09-01T10:18:40.571Z,44.60
2022-09-01T10:21:13.086Z,44.90
2022-09-01T10:23:41.913Z,45.40
2022-09-01T10:26:16.283Z,44.60
2022-09-01T10:28:53.071Z,44.40
2022-09-01T10:31:22.534Z,43.60
2022-09-01T10:33:52.368Z,43.40
2022-09-01T10:36:24.397Z,43.60
2022-09-01T10:38:58.781Z,45.10
2022-09-01T10:41:53.281Z,47.40
2022-09-01T10:44:34.058Z,49.20
2022-09-01T10:47:13.798Z,49.80
2022-09-01T10:50:01.493Z,51.10
2022-09-01T10:52:59.151Z,51.50
2022-09-01T10:55:35.055Z,51.40
2022-09-01T11:01:21.702Z,51.40
2022-09-01T11:04:02.827Z,50.40
2022-09-01T11:07:12.296Z,50.80
2022-09-01T11:09:43.179Z,51.30
2022-09-01T11:12:37.537Z,50.90
2022-09-01T11:15:07.815Z,51.20
2022-09-01T11:17:38.790Z,50.50
2022-09-01T11:20:10.462Z,51.60
2022-09-01T11:22:41.835Z,51.70
2022-09-01T11:25:40.810Z,50.80
2022-09-01T11:28:42.943Z,51.30
2022-09-01T11:31:26.174Z,51.30
2022-09-01T11:34:12.965Z,51.30
2022-09-01T11:36:55.927Z,50.90
2022-09-01T11:39:40.440Z,51.20
2022-09-01T11:42:13.904Z,51.30
2022-09-01T11:44:48.869Z,50.50
2022-09-01T11:47:20.094Z,50.10
2022-09-01T11:49:52.975Z,50.20
2022-09-01T11:52:23.500Z,50.80
2022-09-01T11:54:54.229Z,51.70
2022-09-01T11:57:34.108Z,51.10
2022-09-01T12:00:05.245Z,50.70
2022-09-01T12:02:45.689Z,50.20
2022-09-01T12:05:29.827Z,49.10
2022-09-01T12:07:58.656Z,49.90
2022-09-01T12:10:34.452Z,50.80
2022-09-01T12:13:07.641Z,51.00
2022-09-01T12:15:43.418Z,50.70
2022-09-01T12:18:27.857Z,49.50
2022-09-01T12:20:58.144Z,48.40
2022-09-01T12:23:28.373Z,47.50
2022-09-01T12:26:00.433Z,47.90
2022-09-01T12:28:31.863Z,47.60
2022-09-01T12:31:02.543Z,47.10
2022-09-01T12:33:36.625Z,47.10
2022-09-01T12:36:23.751Z,47.50
2022-09-01T12:38:52.371Z,47.10
2022-09-01T12:41:42.834Z,46.90
2022-09-01T12:44:46.822Z,46.20
2022-09-01T12:47:35.818Z,46.00
2022-09-01T12:50:06.293Z,45.30
2022-09-01T12:52:35.971Z,45.40
2022-09-01T12:58:08.763Z,45.40
2022-09-01T13:00:54.448Z,45.70
2022-09-01T13:03:23.436Z,45.70
2022-09-01T13:05:54.271Z,46.90
2022-09-01T13:08:27.022Z,47.10
2022-09-01T13:10:57.474Z,47.60
2022-09-01T13:13:28.589Z,47.60
2022-09-01T13:16:01.474Z,48.20
2022-09-01T13:18:30.691Z,47.80
2022-09-01T13:20:59.636Z,46.50
2022-09-01T13:23:27.751Z,45.60
2022-09-01T13:25:55.782Z,44.80
2022-09-01T13:36:48.141Z,44.50
2022-09-01T13:39:20.465Z,44.90
2022-09-01T13:41:48.604Z,44.90
2022-09-01T13:44:18.365Z,44.60
2022-09-01T13:50:05.096Z,42.90
2022-09-01T13:52:24.504Z,42.70
2022-09-01T13:54:52.517Z,42.30
2022-09-01T13:57:20.528Z,42.20
2022-09-01T13:59:48.549Z,42.50
2022-09-01T14:02:18.159Z,42.80
2022-09-01T14:04:47.262Z,43.70
2022-09-01T14:07:16.054Z,44.30
2022-09-01T14:09:44.099Z,44.40
2022-09-01T14:12:12.431Z,44.40
2022-09-01T14:17:29.930Z,44.50
2022-09-01T14:19:58.269Z,44.90
2022-09-01T14:22:26.298Z,45.30
2022-09-01T14:24:54.360Z,45.30
2022-09-01T14:27:22.562Z,45.90
2022-09-01T14:29:54.751Z,45.70
2022-09-01T14:32:26.970Z,45.70
2022-09-01T14:34:57.454Z,45.70
2022-09-01T14:37:25.490Z,45.70
2022-09-01T14:39:54.471Z,45.90
2022-09-01T14:42:25.691Z,45.90
2022-09-01T14:44:53.727Z,45.90
2022-09-01T14:47:25.514Z,45.30
2022-09-01T14:49:54.430Z,45.50
2022-09-01T14:52:23.900Z,45.10
2022-09-01T14:54:51.916Z,44.90
2022-09-01T14:57:37.554Z,44.40
2022-09-01T15:00:10.156Z,43.90
2022-09-01T15:02:39.169Z,43.50
2022-09-01T15:05:08.234Z,43.10
2022-09-01T15:07:38.149Z,42.60
2022-09-01T15:10:08.303Z,42.50
2022-09-01T15:12:38.899Z,42.80
2022-09-01T15:15:09.045Z,43.20
2022-09-01T15:17:37.629Z,43.20
2022-09-01T15:20:20.783Z,43.10
2022-09-01T15:22:51.603Z,43.30
2022-09-01T15:25:19.939Z,43.30
2022-09-01T15:27:48.316Z,43.10
2022-09-01T15:30:17.196Z,43.80
2022-09-01T15:32:46.573Z,42.90
2022-09-01T15:35:16.345Z,43.60
2022-09-01T15:37:46.483Z,44.00
2022-09-01T15:40:16.440Z,44.00
2022-09-01T15:42:44.658Z,44.40
2022-09-01T15:45:16.260Z,44.20
2022-09-01T15:47:45.782Z,44.30
2022-09-01T15:50:21.900Z,44.20
2022-09-01T15:52:52.772Z,43.90
2022-09-01T15:55:24.283Z,43.90
2022-09-01T15:57:54.966Z,44.10
2022-09-01T16:00:25.923Z,44.70
2022-09-01T16:02:56.373Z,44.80
2022-09-01T16:05:25.046Z,44.40
2022-09-01T16:07:54.056Z,44.50
2022-09-01T16:10:24.423Z,44.70
2022-09-01T16:12:52.715Z,44.90
2022-09-01T16:15:23.699Z,44.30
2022-09-01T16:18:10.867Z,44.30
2022-09-01T16:20:56.594Z,44.30
2022-09-01T16:23:26.224Z,44.30
2022-09-01T16:25:56.347Z,44.20
2022-09-01T16:28:29.712Z,44.40
2022-09-01T16:31:03.967Z,44.70
2022-09-01T16:33:33.941Z,45.30
2022-09-01T16:36:17.698Z,45.20
2022-09-01T16:38:50.957Z,45.70
2022-09-01T16:41:43.062Z,46.00
2022-09-01T16:44:20.362Z,46.30
2022-09-01T16:47:01.438Z,46.10
2022-09-01T16:49:36.459Z,46.60
2022-09-01T16:52:14.585Z,47.00
2022-09-01T16:54:58.797Z,46.90
2022-09-01T16:57:39.596Z,47.10
2022-09-01T17:00:12.905Z,47.00
2022-09-01T17:02:50.111Z,47.40
2022-09-01T17:05:23.970Z,47.50
2022-09-01T17:07:56.191Z,47.90
2022-09-01T17:10:34.461Z,47.90
2022-09-01T17:13:17.254Z,48.00
2022-09-01T17:15:50.063Z,48.20
2022-09-01T17:18:25.883Z,48.20
2022-09-01T17:20:57.972Z,48.20
2022-09-01T17:23:30.561Z,48.30
2022-09-01T17:26:03.504Z,48.90
2022-09-01T17:28:37.133Z,49.30
2022-09-01T17:31:14.681Z,49.10
2022-09-01T17:33:58.588Z,49.00
2022-09-01T17:36:46.119Z,49.50
2022-09-01T17:39:22.886Z,50.00
2022-09-01T17:41:55.836Z,50.20
2022-09-01T17:44:35.502Z,50.60
2022-09-01T17:47:11.886Z,51.20
2022-09-01T17:49:48.688Z,51.40
2022-09-01T17:52:24.868Z,51.30
2022-09-01T17:54:59.346Z,51.60
2022-09-01T17:57:33.084Z,51.70
2022-09-01T18:00:07.141Z,52.30
2022-09-01T18:03:02.443Z,52.50
2022-09-01T18:05:39.558Z,52.90
2022-09-01T18:08:28.083Z,53.50
2022-09-01T18:11:02.428Z,54.10
2022-09-01T18:13:52.462Z,54.40
2022-09-01T18:16:26.992Z,54.80
2022-09-01T18:18:58.249Z,55.10
2022-09-01T18:21:31.699Z,55.60
2022-09-01T18:24:08.932Z,55.90
2022-09-01T18:26:41.043Z,56.30
2022-09-01T18:29:10.890Z,56.70
2022-09-01T18:32:12.170Z,57.20
2022-09-01T18:34:54.809Z,57.90
2022-09-01T18:37:30.021Z,58.50
2022-09-01T18:40:06.038Z,59.00
2022-09-01T18:42:41.328Z,59.60
2022-09-01T18:45:18.755Z,60.40
2022-09-01T18:47:55.750Z,61.00
2022-09-01T18:50:30.753Z,61.30
2022-09-01T18:53:11.354Z,61.70
2022-09-01T18:55:47.510Z,62.20
2022-09-01T18:58:32.490Z,62.60
2022-09-01T19:01:07.027Z,63.30
2022-09-01T19:03:42.566Z,63.90
2022-09-01T19:06:23.191Z,64.30
2022-09-01T19:08:59.665Z,64.40
2022-09-01T19:11:40.441Z,65.10
2022-09-01T19:14:17.684Z,65.70
2022-09-01T19:17:10.668Z,66.10
2022-09-01T19:19:45.183Z,66.40
2022-09-01T19:22:18.183Z,66.70
2022-09-01T19:24:50.270Z,67.10
2022-09-01T19:27:25.171Z,67.20
2022-09-01T19:29:56.527Z,67.50
2022-09-01T19:32:28.482Z,67.90
2022-09-01T19:35:00.257Z,68.00
2022-09-01T19:37:28.340Z,67.50
2022-09-01T19:39:56.365Z,68.10
2022-09-01T19:42:28.716Z,68.70
2022-09-01T19:45:07.047Z,69.30
2022-09-01T19:47:40.269Z,69.60
2022-09-01T19:50:17.590Z,69.90
2022-09-01T19:52:54.998Z,70.30
2022-09-01T19:55:31.638Z,70.70
2022-09-01T19:58:05.637Z,70.90
2022-09-01T20:00:50.784Z,71.40
2022-09-01T20:03:23.136Z,71.10
2022-09-01T20:05:57.466Z,71.20
2022-09-01T20:08:31.034Z,71.40
2022-09-01T20:11:03.123Z,71.60
2022-09-01T20:13:56.890Z,72.00
2022-09-01T20:16:31.031Z,72.60
2022-09-01T20:19:04.438Z,73.00
2022-09-01T20:21:40.013Z,73.30
2022-09-01T20:24:15.031Z,73.40
2022-09-01T20:26:47.591Z,74.10
2022-09-01T20:29:22.342Z,74.10
2022-09-01T20:31:53.723Z,74.70
2022-09-01T20:34:30.201Z,75.00
2022-09-01T20:37:07.031Z,75.60
2022-09-01T20:39:57.973Z,76.20
2022-09-01T20:42:35.610Z,76.20
2022-09-01T20:45:11.023Z,76.40
2022-09-01T20:47:39.068Z,76.20
2022-09-01T20:50:11.728Z,75.60
2022-09-01T20:52:54.605Z,74.90
2022-09-01T20:55:27.608Z,73.90
2022-09-01T20:58:04.174Z,73.90
2022-09-01T21:00:35.614Z,73.70
2022-09-01T21:03:11.952Z,73.10
2022-09-01T21:05:49.475Z,72.60
2022-09-01T21:08:37.034Z,72.50
2022-09-01T21:11:20.199Z,72.10
2022-09-01T21:13:57.407Z,72.40
2022-09-01T21:16:34.669Z,73.00
2022-09-01T21:19:09.917Z,72.90
2022-09-01T21:21:44.955Z,72.40
2022-09-01T21:24:14.577Z,72.20
2022-09-01T21:26:45.069Z,71.80
2022-09-01T21:29:28.778Z,71.70
2022-09-01T21:31:57.553Z,72.30
2022-09-01T21:34:25.694Z,72.20
2022-09-01T21:36:55.372Z,72.40
2022-09-01T21:39:24.976Z,73.00
2022-09-01T21:41:53.097Z,73.00
2022-09-01T21:44:22.305Z,73.00
2022-09-01T21:46:50.903Z,73.60
2022-09-01T21:49:18.946Z,74.60
2022-09-01T21:51:47.479Z,75.30
2022-09-01T21:54:15.618Z,76.50
2022-09-01T21:56:44.981Z,76.70
2022-09-01T21:59:16.970Z,77.90
2022-09-01T22:01:45.223Z,78.40
2022-09-01T22:04:13.665Z,78.50
2022-09-01T22:06:42.033Z,79.00
2022-09-01T22:09:21.101Z,79.00
2022-09-01T22:11:52.456Z,79.60
2022-09-01T22:14:21.649Z,79.90
2022-09-01T22:16:50.634Z,80.00
2022-09-01T22:19:20.149Z,80.50
2022-09-01T22:21:48.508Z,81.20
2022-09-01T22:24:19.113Z,81.80
2022-09-01T22:26:48.076Z,82.00
2022-09-01T22:29:18.366Z,82.40
2022-09-01T22:31:46.472Z,82.70
2022-09-01T22:34:14.542Z,82.20
2022-09-01T22:36:44.863Z,82.60
2022-09-01T22:39:13.730Z,83.20
2022-09-01T22:41:42.784Z,83.50
2022-09-01T22:44:12.141Z,84.30
2022-09-01T22:46:41.860Z,84.90
2022-09-01T22:49:10.737Z,85.50
2022-09-01T22:51:40.766Z,85.80
2022-09-01T22:54:09.788Z,85.80
2022-09-01T22:56:40.389Z,85.90
2022-09-01T22:59:10.650Z,86.60
2022-09-01T23:01:42.476Z,87.10
2022-09-01T23:04:12.819Z,87.30
2022-09-01T23:06:43.689Z,87.10
2022-09-01T23:09:12.566Z,87.20
2022-09-01T23:11:40.584Z,87.80
2022-09-01T23:14:08.579Z,88.00
2022-09-01T23:16:36.718Z,88.40
2022-09-01T23:19:06.812Z,89.10
2022-09-01T23:21:36.882Z,89.70
2022-09-01T23:24:05.402Z,89.80
2022-09-01T23:26:34.754Z,90.10
2022-09-01T23:29:03.424Z,90.00
2022-09-01T23:31:37.581Z,90.30
2022-09-01T23:34:08.396Z,90.80
2022-09-01T23:36:37.399Z,90.90
2022-09-01T23:39:06.536Z,90.80
2022-09-01T23:41:37.648Z,91.20
2022-09-01T23:44:09.359Z,91.80
2022-09-01T23:46:39.989Z,91.80
2022-09-01T23:49:10.063Z,91.60
2022-09-01T23:51:38.860Z,91.90
2022-09-01T23:54:07.967Z,91.60
2022-09-01T23:56:36.059Z,91.40
2022-09-01T23:59:04.775Z,91.50
